Time;durP1;ratioP1;P1;durP2;ratioP2;P2;SDS_P1;SDS_P2;PMS_P1;PMS_P2;Temp;Humidity;BMP_temperature;BMP_pressure;BME280_temperature;BME280_humidity;BME280_pressure;Samples;Min_cycle;Max_cycle;Signal;HPM_P1;HPM_P2
2023/02/03 00:01:21;;;;;;;;;;;8.10;99.90;;;;;;5085036;28;19924;-62
2023/02/03 00:03:49;;;;;;;;;;;8.10;99.90;;;;;;5085193;28;20359;-62
2023/02/03 00:06:16;;;;;;;;;;;8.10;99.90;;;;;;5086940;28;20401;-62
2023/02/03 00:08:42;;;;;;;;;;;8.00;99.90;;;;;;5086100;28;20367;-62
2023/02/03 00:11:09;;;;;;;;;;;8.10;99.90;;;;;;5084604;28;19921;-62
2023/02/03 00:13:36;;;;;;;;;;;8.10;99.90;;;;;;5086370;28;19923;-62
2023/02/03 00:16:05;;;;;;;;;;;8.10;99.90;;;;;;5086126;28;19924;-62
2023/02/03 00:18:31;;;;;;;;;;;8.10;99.90;;;;;;5086144;28;19920;-61
2023/02/03 00:20:59;;;;;;;;;;;8.10;99.90;;;;;;5085926;28;19920;-62
2023/02/03 00:23:28;;;;;;;;;;;8.10;99.90;;;;;;5084269;28;20391;-61
2023/02/03 00:25:55;;;;;;;;;;;8.20;99.90;;;;;;5085407;28;19967;-62
2023/02/03 00:28:21;;;;;;;;;;;8.10;99.90;;;;;;5085057;28;19924;-61
2023/02/03 00:30:48;;;;;;;;;;;8.10;99.90;;;;;;5086262;28;19919;-62
2023/02/03 00:33:15;;;;;;;;;;;8.20;99.90;;;;;;5085981;28;20340;-62
2023/02/03 00:35:41;;;;;;;;;;;8.10;99.90;;;;;;5083520;28;20681;-62
2023/02/03 00:38:09;;;;;;;;;;;8.20;99.90;;;;;;5085146;28;19920;-61
2023/02/03 00:40:36;;;;;;;;;;;8.20;99.90;;;;;;5086586;28;19952;-61
2023/02/03 00:43:02;;;;;;;;;;;8.20;99.90;;;;;;5084142;28;20363;-62
2023/02/03 00:45:29;;;;;;;;;;;8.20;99.90;;;;;;5084125;28;19924;-62
2023/02/03 00:47:55;;;;;;;;;;;8.20;99.90;;;;;;5086825;28;19970;-62
2023/02/03 00:50:22;;;;;;;;;;;8.10;99.90;;;;;;5085240;28;20001;-62
2023/02/03 00:52:48;;;;;;;;;;;8.10;99.90;;;;;;5086002;28;19920;-62
2023/02/03 00:55:16;;;;;;;;;;;8.10;99.90;;;;;;5080086;28;19974;-62
2023/02/03 00:57:43;;;;;;;;;;;8.20;99.90;;;;;;5086576;28;19920;-62
2023/02/03 01:00:10;;;;;;;;;;;8.20;99.90;;;;;;5082847;28;19920;-62
2023/02/03 01:02:36;;;;;;;;;;;8.20;99.90;;;;;;5084461;28;19924;-60
2023/02/03 01:05:03;;;;;;;;;;;8.20;99.90;;;;;;5083721;28;19920;-62
2023/02/03 01:07:32;;;;;;;;;;;8.20;99.90;;;;;;5076978;28;22238;-62
2023/02/03 01:09:58;;;;;;;;;;;8.20;99.90;;;;;;5085252;28;20038;-62
2023/02/03 01:12:28;;;;;;;;;;;8.30;99.90;;;;;;5083447;28;19925;-62
2023/02/03 01:14:54;;;;;;;;;;;8.20;99.90;;;;;;5084352;28;19929;-61
2023/02/03 01:17:21;;;;;;;;;;;8.20;99.90;;;;;;5085535;28;19978;-62
2023/02/03 01:19:48;;;;;;;;;;;8.20;99.90;;;;;;5082429;28;19931;-62
2023/02/03 01:22:14;;;;;;;;;;;8.20;99.90;;;;;;5085363;28;19954;-62
2023/02/03 01:24:41;;;;;;;;;;;8.30;99.90;;;;;;5083088;28;19924;-62
2023/02/03 01:27:07;;;;;;;;;;;8.30;99.90;;;;;;5085594;28;20011;-62
2023/02/03 01:29:35;;;;;;;;;;;8.30;99.90;;;;;;5083749;28;19925;-62
2023/02/03 01:32:02;;;;;;;;;;;8.30;99.90;;;;;;5084477;28;20375;-62
2023/02/03 01:34:28;;;;;;;;;;;8.30;99.90;;;;;;5085406;28;19924;-62
2023/02/03 01:36:55;;;;;;;;;;;8.30;99.90;;;;;;5082884;28;19985;-62
2023/02/03 01:39:21;;;;;;;;;;;8.30;99.90;;;;;;5084097;28;20340;-62
2023/02/03 01:41:48;;;;;;;;;;;8.30;99.90;;;;;;5084947;28;19924;-62
2023/02/03 01:44:49;;;;;;;;;;;8.30;99.90;;;;;;5083192;28;19970;-62
2023/02/03 01:47:21;;;;;;;;;;;8.30;99.90;;;;;;5002345;28;20406;-62
2023/02/03 01:49:49;;;;;;;;;;;8.30;99.90;;;;;;5000737;28;19933;-62
2023/02/03 01:52:16;;;;;;;;;;;8.30;99.90;;;;;;5043591;28;20295;-62
2023/02/03 01:54:43;;;;;;;;;;;8.30;99.90;;;;;;5084167;28;19928;-63
2023/02/03 01:57:13;;;;;;;;;;;8.30;99.90;;;;;;5084298;28;20394;-62
2023/02/03 01:59:39;;;;;;;;;;;8.40;99.90;;;;;;5083189;28;19931;-62
2023/02/03 02:02:06;;;;;;;;;;;8.40;99.90;;;;;;5082487;28;19994;-61
2023/02/03 02:04:39;;;;;;;;;;;8.40;99.90;;;;;;5084652;28;19924;-62
2023/02/03 02:07:07;;;;;;;;;;;8.40;99.90;;;;;;5084577;28;19924;-61
2023/02/03 02:09:34;;;;;;;;;;;8.40;99.90;;;;;;5084797;28;19924;-62
2023/02/03 02:12:00;;;;;;;;;;;8.50;99.90;;;;;;5083556;28;19940;-62
2023/02/03 02:14:27;;;;;;;;;;;8.40;99.90;;;;;;5081838;28;19932;-62
2023/02/03 02:16:57;;;;;;;;;;;8.40;99.90;;;;;;5083426;28;20447;-62
2023/02/03 02:19:34;;;;;;;;;;;8.40;99.90;;;;;;5081129;28;19924;-62
2023/02/03 02:22:06;;;;;;;;;;;8.40;99.90;;;;;;5082258;28;19985;-62
2023/02/03 02:25:02;;;;;;;;;;;8.40;99.90;;;;;;5078592;28;20449;-62
2023/02/03 02:27:35;;;;;;;;;;;8.40;99.90;;;;;;5080408;28;19985;-62
2023/02/03 02:30:16;;;;;;;;;;;8.40;99.90;;;;;;5079650;28;19950;-62
2023/02/03 02:33:01;;;;;;;;;;;8.40;99.90;;;;;;5079017;28;20276;-62
2023/02/03 02:35:32;;;;;;;;;;;8.40;99.90;;;;;;5078884;28;19974;-62
2023/02/03 02:38:02;;;;;;;;;;;8.40;99.90;;;;;;5081547;28;19932;-62
2023/02/03 02:40:33;;;;;;;;;;;8.40;99.90;;;;;;5083195;28;19932;-63
2023/02/03 02:43:02;;;;;;;;;;;8.40;99.90;;;;;;5083948;28;20436;-62
2023/02/03 02:45:30;;;;;;;;;;;8.40;99.90;;;;;;5082488;28;19932;-62
2023/02/03 02:47:59;;;;;;;;;;;8.40;99.90;;;;;;5080685;28;19936;-62
2023/02/03 02:50:28;;;;;;;;;;;8.30;99.90;;;;;;5082191;28;19994;-62
2023/02/03 02:52:56;;;;;;;;;;;8.40;99.90;;;;;;5081273;28;19970;-63
2023/02/03 02:55:26;;;;;;;;;;;8.40;99.90;;;;;;5083529;28;19924;-62
2023/02/03 02:57:54;;;;;;;;;;;8.40;99.90;;;;;;5083998;28;19958;-63
2023/02/03 03:00:22;;;;;;;;;;;8.40;99.90;;;;;;5079115;28;19931;-62
2023/02/03 03:02:48;;;;;;;;;;;8.40;99.90;;;;;;5083136;28;20337;-62
2023/02/03 03:05:16;;;;;;;;;;;8.40;99.90;;;;;;5081060;28;20414;-62
2023/02/03 03:07:44;;;;;;;;;;;8.40;99.90;;;;;;5082299;28;20439;-62
2023/02/03 03:10:14;;;;;;;;;;;8.40;99.90;;;;;;5084142;28;19970;-62
2023/02/03 03:12:43;;;;;;;;;;;8.40;99.90;;;;;;5082316;28;20318;-62
2023/02/03 03:15:11;;;;;;;;;;;8.40;99.90;;;;;;5081110;28;19978;-62
2023/02/03 03:17:41;;;;;;;;;;;8.40;99.90;;;;;;5082547;28;20404;-62
2023/02/03 03:20:10;;;;;;;;;;;8.40;99.90;;;;;;5079947;28;19978;-60
2023/02/03 03:22:40;;;;;;;;;;;8.40;99.90;;;;;;5082630;28;19981;-61
2023/02/03 03:25:09;;;;;;;;;;;8.40;99.90;;;;;;5083243;28;19932;-62
2023/02/03 03:27:39;;;;;;;;;;;8.30;99.90;;;;;;5082708;28;19936;-61
2023/02/03 03:30:08;;;;;;;;;;;8.30;99.90;;;;;;5080183;28;19978;-62
2023/02/03 03:32:35;;;;;;;;;;;8.30;99.90;;;;;;5081995;28;19924;-62
2023/02/03 03:35:02;;;;;;;;;;;8.30;99.90;;;;;;5080704;28;20398;-62
2023/02/03 03:37:32;;;;;;;;;;;8.30;99.90;;;;;;5077041;28;20314;-62
2023/02/03 03:40:00;;;;;;;;;;;8.30;99.90;;;;;;5081385;28;19929;-62
2023/02/03 03:42:28;;;;;;;;;;;8.40;99.90;;;;;;5083162;28;19928;-61
2023/02/03 03:44:57;;;;;;;;;;;8.40;99.90;;;;;;5082186;28;20375;-62
2023/02/03 03:47:27;;;;;;;;;;;8.30;99.90;;;;;;5080453;28;19940;-62
2023/02/03 03:49:54;;;;;;;;;;;8.30;99.90;;;;;;5080807;28;20367;-62
2023/02/03 03:52:23;;;;;;;;;;;8.30;99.90;;;;;;5080881;28;19929;-62
2023/02/03 03:54:50;;;;;;;;;;;8.30;99.90;;;;;;5081846;28;20382;-62
2023/02/03 03:57:18;;;;;;;;;;;8.30;99.90;;;;;;5083079;28;19932;-62
2023/02/03 03:59:46;;;;;;;;;;;8.30;99.90;;;;;;5081421;28;20326;-62
2023/02/03 04:02:15;;;;;;;;;;;8.40;99.90;;;;;;5080654;28;20383;-62
2023/02/03 04:04:44;;;;;;;;;;;8.30;99.90;;;;;;5077571;28;20372;-62
2023/02/03 04:07:12;;;;;;;;;;;8.30;99.90;;;;;;5080898;28;19928;-62
2023/02/03 04:09:39;;;;;;;;;;;8.40;99.90;;;;;;5079077;28;20379;-62
2023/02/03 04:12:07;;;;;;;;;;;8.30;99.90;;;;;;5082411;28;20355;-62
2023/02/03 04:14:34;;;;;;;;;;;8.40;99.90;;;;;;5080594;28;19948;-62
2023/02/03 04:17:01;;;;;;;;;;;8.30;99.90;;;;;;5082204;28;19986;-62
2023/02/03 04:19:29;;;;;;;;;;;8.30;99.90;;;;;;5079123;28;19982;-62
2023/02/03 04:21:55;;;;;;;;;;;8.40;99.90;;;;;;5082657;28;19952;-62
2023/02/03 04:24:22;;;;;;;;;;;8.40;99.90;;;;;;5082354;28;19924;-62
2023/02/03 04:26:49;;;;;;;;;;;8.30;99.90;;;;;;5080429;28;20268;-62
2023/02/03 04:29:16;;;;;;;;;;;8.40;99.90;;;;;;5081747;28;19924;-62
2023/02/03 04:31:42;;;;;;;;;;;8.40;99.90;;;;;;5083029;28;19978;-62
2023/02/03 04:34:09;;;;;;;;;;;8.30;99.90;;;;;;5080553;28;20453;-62
2023/02/03 04:36:36;;;;;;;;;;;8.40;99.90;;;;;;5080955;28;19924;-62
2023/02/03 04:39:03;;;;;;;;;;;8.40;99.90;;;;;;5082858;28;20391;-62
2023/02/03 04:41:30;;;;;;;;;;;8.40;99.90;;;;;;5081616;28;19928;-62
2023/02/03 04:43:56;;;;;;;;;;;8.40;99.90;;;;;;5082789;28;20342;-62
2023/02/03 04:46:23;;;;;;;;;;;8.40;99.90;;;;;;5085583;28;19954;-62
2023/02/03 04:48:49;;;;;;;;;;;8.50;99.90;;;;;;5084748;28;19929;-63
2023/02/03 04:51:16;;;;;;;;;;;8.40;99.90;;;;;;5086386;28;20341;-61
2023/02/03 04:53:44;;;;;;;;;;;8.50;99.90;;;;;;5084755;28;19924;-62
2023/02/03 04:56:10;;;;;;;;;;;8.40;99.90;;;;;;5083475;28;19925;-62
2023/02/03 04:58:37;;;;;;;;;;;8.40;99.90;;;;;;5085194;28;19924;-62
2023/02/03 05:01:06;;;;;;;;;;;8.40;99.90;;;;;;5084516;28;19932;-62
2023/02/03 05:03:33;;;;;;;;;;;8.50;99.90;;;;;;5086265;28;20014;-61
2023/02/03 05:05:59;;;;;;;;;;;8.50;99.90;;;;;;5084678;28;20771;-62
2023/02/03 05:08:26;;;;;;;;;;;8.40;99.90;;;;;;5083860;28;20015;-62
2023/02/03 05:10:54;;;;;;;;;;;8.40;99.90;;;;;;5085482;28;19920;-61
2023/02/03 05:13:20;;;;;;;;;;;8.40;99.90;;;;;;5085612;28;19973;-62
2023/02/03 05:15:47;;;;;;;;;;;8.50;99.90;;;;;;5076426;28;20391;-62
2023/02/03 05:18:13;;;;;;;;;;;8.40;99.90;;;;;;5080250;28;19974;-62
2023/02/03 05:20:40;;;;;;;;;;;8.50;99.90;;;;;;5079838;28;19920;-62
2023/02/03 05:23:06;;;;;;;;;;;8.50;99.90;;;;;;5084975;28;20317;-63
2023/02/03 05:25:33;;;;;;;;;;;8.40;99.90;;;;;;5085104;28;19965;-62
2023/02/03 05:28:00;;;;;;;;;;;8.40;99.90;;;;;;5084080;28;19920;-62
2023/02/03 05:30:27;;;;;;;;;;;8.50;99.90;;;;;;5081961;28;19984;-64
2023/02/03 05:32:54;;;;;;;;;;;8.50;99.90;;;;;;5085395;28;19965;-63
2023/02/03 05:35:20;;;;;;;;;;;8.50;99.90;;;;;;5083445;28;19974;-61
2023/02/03 05:37:47;;;;;;;;;;;8.50;99.90;;;;;;5083488;28;19928;-61
2023/02/03 05:43:14;;;;;;;;;;;8.50;99.90;;;;;;5042278;28;20429;-61
2023/02/03 05:45:41;;;;;;;;;;;8.50;99.90;;;;;;5039964;28;19967;-61
2023/02/03 05:48:07;;;;;;;;;;;8.50;99.90;;;;;;5059800;28;19962;-61
2023/02/03 05:50:34;;;;;;;;;;;8.50;99.90;;;;;;5082863;28;19920;-61
2023/02/03 05:53:01;;;;;;;;;;;8.50;99.90;;;;;;5084490;28;20341;-63
2023/02/03 05:55:28;;;;;;;;;;;8.50;99.90;;;;;;5084343;28;20344;-60
2023/02/03 05:57:54;;;;;;;;;;;8.50;99.90;;;;;;5084702;28;19920;-61
2023/02/03 06:00:23;;;;;;;;;;;8.40;99.90;;;;;;5081272;28;20382;-62
2023/02/03 06:02:53;;;;;;;;;;;8.50;99.90;;;;;;5078938;28;19923;-61
2023/02/03 06:05:19;;;;;;;;;;;8.50;99.90;;;;;;5075811;28;19928;-61
2023/02/03 06:07:46;;;;;;;;;;;8.40;99.90;;;;;;5079676;28;19924;-60
2023/02/03 06:10:13;;;;;;;;;;;8.50;99.90;;;;;;5083913;28;19920;-61
2023/02/03 06:12:39;;;;;;;;;;;8.40;99.90;;;;;;5081307;28;19993;-61
2023/02/03 06:15:06;;;;;;;;;;;8.40;99.90;;;;;;5081698;28;20371;-61
2023/02/03 06:17:34;;;;;;;;;;;8.50;99.90;;;;;;5082397;28;19973;-61
2023/02/03 06:20:01;;;;;;;;;;;8.50;99.90;;;;;;5081366;28;20433;-61
2023/02/03 06:22:27;;;;;;;;;;;8.50;99.90;;;;;;5079923;28;19920;-61
2023/02/03 06:24:54;;;;;;;;;;;8.50;99.90;;;;;;5082699;28;19920;-64
2023/02/03 06:27:20;;;;;;;;;;;8.50;99.90;;;;;;5082603;28;19942;-61
2023/02/03 06:29:47;;;;;;;;;;;8.50;99.90;;;;;;5082648;28;20341;-59
2023/02/03 06:32:14;;;;;;;12.07;5.65;;;8.50;99.90;;;;;;5080688;28;20407;-60
2023/02/03 06:34:42;;;;;;;;;;;8.50;99.90;;;;;;5082452;28;20415;-63
2023/02/03 06:37:08;;;;;;;;;;;8.50;99.90;;;;;;5083933;28;19970;-60
2023/02/03 06:39:35;;;;;;;;;;;8.50;99.90;;;;;;5084049;28;19950;-61
2023/02/03 06:42:02;;;;;;;;;;;8.50;99.90;;;;;;5082775;28;19921;-61
2023/02/03 06:44:28;;;;;;;;;;;8.50;99.90;;;;;;5081225;28;20350;-62
2023/02/03 06:46:55;;;;;;;;;;;8.50;99.90;;;;;;5081835;28;19974;-60
2023/02/03 06:49:22;;;;;;;;;;;8.60;99.90;;;;;;5082903;28;19989;-64
2023/02/03 06:51:51;;;;;;;;;;;8.60;99.90;;;;;;5082772;28;19931;-61
2023/02/03 06:54:17;;;;;;;;;;;8.60;99.90;;;;;;5072265;28;19921;-61
2023/02/03 06:56:44;;;;;;;;;;;8.60;99.90;;;;;;5079851;28;19920;-61
2023/02/03 06:59:10;;;;;;;;;;;8.60;99.90;;;;;;5078756;28;19924;-61
2023/02/03 07:01:37;;;;;;;;;;;8.60;99.90;;;;;;5083494;28;19928;-60
2023/02/03 07:04:04;;;;;;;;;;;8.60;99.90;;;;;;5083801;28;19919;-61
2023/02/03 07:06:32;;;;;;;;;;;8.60;99.90;;;;;;5078389;28;20351;-62
2023/02/03 07:09:01;;;;;;;;;;;8.60;99.90;;;;;;5083425;28;19920;-62
2023/02/03 07:11:28;;;;;;;;;;;8.50;99.90;;;;;;5081495;28;19950;-61
2023/02/03 07:13:54;;;;;;;;;;;8.50;99.90;;;;;;5082698;28;19920;-62
2023/02/03 07:16:21;;;;;;;;;;;8.40;99.90;;;;;;5077623;28;19928;-62
2023/02/03 07:18:47;;;;;;;;;;;8.40;99.90;;;;;;5080585;28;20304;-62
2023/02/03 07:21:14;;;;;;;;;;;8.40;99.90;;;;;;5080162;28;19920;-63
2023/02/03 07:23:41;;;;;;;;;;;8.40;99.90;;;;;;5082105;28;19924;-63
2023/02/03 07:26:10;;;;;;;;;;;8.40;99.90;;;;;;5082656;28;19920;-63
2023/02/03 07:28:36;;;;;;;;;;;8.40;99.90;;;;;;5075528;28;20299;-62
2023/02/03 07:31:04;;;;;;;12.67;5.90;;;8.40;99.90;;;;;;5083117;28;20906;-62
2023/02/03 07:33:31;;;;;;;;;;;8.40;99.90;;;;;;5079539;28;20422;-62
2023/02/03 07:35:58;;;;;;;;;;;8.40;99.90;;;;;;5081665;28;19924;-63
2023/02/03 07:38:25;;;;;;;;;;;8.50;99.90;;;;;;5082880;28;19973;-62
2023/02/03 07:40:52;;;;;;;;;;;8.50;99.90;;;;;;5081030;28;19928;-62
2023/02/03 07:43:20;;;;;;;;;;;8.50;99.90;;;;;;5079310;28;19924;-63
2023/02/03 07:45:46;;;;;;;;;;;8.50;99.90;;;;;;5083033;28;19927;-62
2023/02/03 07:48:13;;;;;;;;;;;8.60;99.90;;;;;;5083805;28;20253;-62
2023/02/03 07:50:40;;;;;;;;;;;8.60;99.90;;;;;;5083077;28;19920;-63
2023/02/03 07:53:08;;;;;;;;;;;8.70;99.90;;;;;;5080880;28;19924;-62
2023/02/03 07:55:34;;;;;;;;;;;8.70;99.90;;;;;;5083608;28;20011;-62
2023/02/03 07:58:01;;;;;;;;;;;8.70;99.90;;;;;;5081444;28;19920;-61
2023/02/03 08:00:29;;;;;;;;;;;8.70;99.90;;;;;;5078934;28;19930;-61
2023/02/03 08:02:55;;;;;;;;;;;8.70;99.90;;;;;;5080869;28;19920;-60
2023/02/03 08:05:22;;;;;;;;;;;8.70;99.90;;;;;;5081015;28;19920;-61
2023/02/03 08:07:48;;;;;;;;;;;8.70;99.90;;;;;;5079049;28;19924;-61
2023/02/03 08:10:16;;;;;;;;;;;8.70;99.90;;;;;;5081105;28;19920;-62
2023/02/03 08:12:43;;;;;;;;;;;8.70;99.90;;;;;;5084882;28;20409;-62
2023/02/03 08:15:10;;;;;;;;;;;8.80;99.90;;;;;;5081046;28;19924;-62
2023/02/03 08:17:38;;;;;;;;;;;8.80;99.90;;;;;;5088762;28;19927;-62
2023/02/03 08:20:05;;;;;;;;;;;8.80;99.90;;;;;;5090106;28;19956;-63
2023/02/03 08:22:32;;;;;;;;;;;8.80;99.90;;;;;;5085445;28;20010;-64
2023/02/03 08:24:59;;;;;;;;;;;8.80;99.90;;;;;;5086017;28;19924;-64
2023/02/03 08:27:25;;;;;;;;;;;8.80;99.90;;;;;;5086341;28;19923;-62
2023/02/03 08:29:52;;;;;;;;;;;8.70;99.90;;;;;;5085173;28;19978;-62
2023/02/03 08:32:21;;;;;;;;;;;8.80;99.90;;;;;;5083631;28;20464;-63
2023/02/03 08:34:49;;;;;;;;;;;8.80;99.90;;;;;;5085685;28;20394;-62
2023/02/03 08:37:16;;;;;;;;;;;8.80;99.90;;;;;;5085864;28;19919;-62
2023/02/03 08:39:43;;;;;;;;;;;8.80;99.90;;;;;;5087147;28;20370;-63
2023/02/03 08:42:10;;;;;;;;;;;8.70;99.90;;;;;;5086757;28;19923;-63
2023/02/03 08:44:37;;;;;;;;;;;8.70;99.90;;;;;;5083587;28;20290;-63
2023/02/03 08:47:04;;;;;;;;;;;8.70;99.90;;;;;;5083276;28;19920;-63
2023/02/03 08:49:31;;;;;;;;;;;8.70;99.90;;;;;;5080976;28;19980;-62
2023/02/03 08:51:59;;;;;;;;;;;8.70;99.90;;;;;;5080248;28;19927;-62
2023/02/03 08:54:25;;;;;;;;;;;8.70;99.90;;;;;;5083149;28;19927;-63
2023/02/03 08:56:52;;;;;;;;;;;8.70;99.90;;;;;;5085591;28;19924;-61
2023/02/03 08:59:19;;;;;;;;;;;8.70;99.90;;;;;;5074696;28;20381;-60
2023/02/03 09:01:47;;;;;;;;;;;8.70;99.90;;;;;;5086781;28;19966;-62
2023/02/03 09:04:14;;;;;;;;;;;8.80;99.90;;;;;;5078683;28;19920;-63
2023/02/03 09:06:40;;;;;;;;;;;8.80;99.90;;;;;;5084789;28;20421;-63
2023/02/03 09:09:09;;;;;;;;;;;8.90;99.90;;;;;;5079655;28;19942;-61
2023/02/03 09:11:35;;;;;;;;;;;8.80;99.90;;;;;;5087308;28;19939;-61
2023/02/03 09:14:02;;;;;;;;;;;8.90;99.90;;;;;;5081763;28;19976;-61
2023/02/03 09:16:29;;;;;;;;;;;8.80;99.90;;;;;;5079386;28;19928;-61
2023/02/03 09:18:56;;;;;;;;;;;8.80;99.90;;;;;;5083050;28;19920;-63
2023/02/03 09:21:23;;;;;;;;;;;8.80;99.90;;;;;;5084552;28;19920;-61
2023/02/03 09:23:50;;;;;;;;;;;8.90;99.90;;;;;;5075414;28;20007;-62
2023/02/03 09:26:18;;;;;;;;;;;8.80;99.90;;;;;;5084679;28;19921;-62
2023/02/03 09:28:44;;;;;;;;;;;8.80;99.90;;;;;;5075175;28;19924;-62
2023/02/03 09:31:12;;;;;;;;;;;8.90;99.90;;;;;;5083794;28;20601;-63
2023/02/03 09:33:39;;;;;;;;;;;8.80;99.90;;;;;;5081992;28;19920;-62
2023/02/03 09:36:06;;;;;;;;;;;8.90;99.90;;;;;;5086069;28;19928;-63
2023/02/03 09:38:33;;;;;;;;;;;8.80;99.90;;;;;;5082096;28;19924;-62
2023/02/03 09:41:02;;;;;;;;;;;8.80;99.90;;;;;;5086601;28;19927;-64
2023/02/03 09:43:35;;;;;;;;;;;8.80;99.90;;;;;;5081930;28;19920;-62
2023/02/03 09:46:02;;;;;;;;;;;8.80;99.90;;;;;;5084418;28;19927;-63
2023/02/03 09:48:32;;;;;;;;;;;8.90;99.90;;;;;;5082335;28;20343;-63
2023/02/03 09:50:59;;;;;;;;;;;8.90;99.90;;;;;;5083689;28;19927;-63
2023/02/03 09:53:28;;;;;;;;;;;8.90;99.90;;;;;;5084784;28;20019;-63
2023/02/03 09:55:55;;;;;;;;;;;8.90;99.90;;;;;;5082335;28;20260;-59
2023/02/03 09:58:22;;;;;;;;;;;8.80;99.90;;;;;;5079688;28;20387;-62
2023/02/03 10:00:51;;;;;;;;;;;8.90;99.90;;;;;;5077726;28;20461;-61
2023/02/03 10:03:25;;;;;;;;;;;8.80;99.90;;;;;;5081354;28;19943;-67
2023/02/03 10:06:04;;;;;;;10.70;6.70;;;8.80;99.90;;;;;;5079312;28;19920;-63
2023/02/03 10:08:55;;;;;;;15.75;7.38;;;8.80;99.90;;;;;;5080356;28;20431;-62
2023/02/03 10:11:31;;;;;;;13.15;7.53;;;8.80;99.90;;;;;;5077667;28;20829;-61
2023/02/03 10:14:08;;;;;;;13.10;7.78;;;8.80;99.90;;;;;;5079392;28;20415;-68
2023/02/03 10:16:46;;;;;;;;;;;8.90;99.90;;;;;;5080138;28;20422;-66
2023/02/03 10:19:18;;;;;;;;;;;8.90;99.90;;;;;;5084600;28;19926;-67
2023/02/03 10:21:48;;;;;;;;;;;9.00;99.90;;;;;;5078667;28;20384;-66
2023/02/03 10:24:16;;;;;;;;;;;9.00;99.90;;;;;;5085282;28;20294;-66
2023/02/03 10:26:43;;;;;;;;;;;9.10;99.90;;;;;;5080979;28;19924;-67
2023/02/03 10:29:17;;;;;;;;;;;9.10;99.90;;;;;;5083352;28;19920;-65
2023/02/03 10:31:47;;;;;;;;;;;9.00;99.90;;;;;;5078988;28;19966;-66
2023/02/03 10:34:14;;;;;;;;;;;9.00;99.90;;;;;;5080735;28;19920;-65
2023/02/03 10:36:48;;;;;;;;;;;9.00;99.90;;;;;;5083019;28;19931;-61
2023/02/03 10:39:19;;;;;;;;;;;9.00;99.90;;;;;;5083227;28;19920;-62
2023/02/03 10:41:46;;;;;;;;;;;9.00;99.90;;;;;;5082460;28;19921;-62
2023/02/03 10:44:14;;;;;;;;;;;9.00;99.90;;;;;;5084830;28;19943;-62
2023/02/03 10:46:42;;;;;;;;;;;9.00;99.90;;;;;;5080887;28;19924;-66
2023/02/03 10:49:12;;;;;;;;;;;10.20;99.90;;;;;;5080691;28;19967;-66
2023/02/03 10:51:41;;;;;;;;;;;8.90;99.90;;;;;;5078609;28;20062;-61
2023/02/03 10:54:25;;;;;;;;;;;8.90;99.90;;;;;;5080333;28;19954;-62
2023/02/03 10:56:52;;;;;;;;;;;9.00;99.90;;;;;;5080502;28;19920;-63
2023/02/03 10:59:27;;;;;;;;;;;9.00;99.90;;;;;;5082980;28;19919;-62
2023/02/03 11:01:54;;;;;;;;;;;9.10;99.90;;;;;;5084312;28;19927;-63
2023/02/03 11:04:25;;;;;;;;;;;9.30;99.90;;;;;;5077366;28;19928;-62
2023/02/03 11:06:54;;;;;;;;;;;9.10;99.90;;;;;;5083098;28;19927;-63
2023/02/03 11:09:23;;;;;;;;;;;9.10;99.90;;;;;;5081717;28;20334;-63
2023/02/03 11:12:02;;;;;;;;;;;9.10;99.90;;;;;;5080565;28;19974;-63
2023/02/03 11:14:36;;;;;;;;;;;9.20;99.90;;;;;;5081124;28;19924;-64
2023/02/03 11:17:07;;;;;;;;;;;9.20;99.90;;;;;;5072180;28;19920;-62
2023/02/03 11:19:36;;;;;;;;;;;9.20;99.90;;;;;;5079806;28;20276;-62
2023/02/03 11:22:03;;;;;;;;;;;9.30;99.90;;;;;;5081841;28;19920;-63
2023/02/03 11:24:31;;;;;;;;;;;9.30;99.90;;;;;;5082833;28;19931;-61
2023/02/03 11:26:59;;;;;;;;;;;9.30;99.90;;;;;;5077303;28;19943;-62
2023/02/03 11:29:28;;;;;;;;;;;9.20;99.90;;;;;;5080978;28;19928;-61
2023/02/03 11:31:55;;;;;;;;;;;9.20;99.90;;;;;;5079012;28;19967;-62
2023/02/03 11:34:24;;;;;;;;;;;9.30;99.90;;;;;;5081922;28;19923;-62
2023/02/03 11:36:52;;;;;;;;;;;9.40;99.90;;;;;;5076801;28;20434;-62
2023/02/03 11:39:21;;;;;;;;;;;9.30;99.90;;;;;;5084493;28;19998;-61
2023/02/03 11:41:48;;;;;;;;;;;9.30;99.90;;;;;;5081017;28;19943;-61
2023/02/03 11:44:18;;;;;;;;;;;9.40;99.90;;;;;;5075846;28;19928;-62
2023/02/03 11:46:45;;;;;;;;;;;9.30;99.90;;;;;;5079740;28;19921;-65
2023/02/03 11:49:18;;;;;;;;;;;9.30;99.90;;;;;;5079881;28;20011;-67
2023/02/03 11:51:49;;;;;;;;;;;9.50;99.90;;;;;;5077007;28;20023;-65
2023/02/03 11:54:23;;;;;;;;;;;9.40;99.90;;;;;;5075858;28;19921;-65
2023/02/03 11:57:02;;;;;;;;;;;9.50;99.90;;;;;;5079533;28;19928;-65
2023/02/03 11:59:36;;;;;;;;;;;9.60;99.90;;;;;;5082863;28;20290;-66
2023/02/03 12:02:18;;;;;;;;;;;9.70;99.90;;;;;;5084706;28;19926;-62
2023/02/03 12:05:03;;;;;;;;;;;9.60;99.90;;;;;;5048329;28;19927;-62
2023/02/03 12:07:34;;;;;;;;;;;9.50;99.90;;;;;;5086030;28;19924;-62
2023/02/03 12:10:07;;;;;;;;;;;9.60;99.90;;;;;;5080520;28;19931;-60
2023/02/03 12:12:44;;;;;;;;;;;9.50;99.90;;;;;;5083968;28;19924;-63
2023/02/03 12:15:39;;;;;;;;;;;9.50;99.90;;;;;;5087600;28;19931;-63
2023/02/03 12:18:13;;;;;;;;;;;9.50;99.90;;;;;;5085181;28;19924;-62
2023/02/03 12:20:44;;;;;;;;;;;9.40;99.90;;;;;;5084191;28;19966;-62
2023/02/03 12:23:18;;;;;;;;;;;9.40;99.90;;;;;;5083064;28;19924;-62
2023/02/03 12:25:50;;;;;;;;;;;9.50;99.90;;;;;;5086067;28;19974;-62
2023/02/03 12:28:22;;;;;;;;;;;9.50;99.90;;;;;;5084420;28;19969;-65
2023/02/03 12:30:51;;;;;;;;;;;9.50;99.90;;;;;;5082265;28;19985;-61
2023/02/03 12:33:20;;;;;;;;;;;9.40;99.90;;;;;;5085190;28;20344;-62
2023/02/03 12:35:50;;;;;;;;;;;9.40;99.90;;;;;;5086037;28;19973;-62
2023/02/03 12:38:20;;;;;;;;;;;9.40;99.90;;;;;;5085278;28;19927;-61
2023/02/03 12:40:51;;;;;;;;;;;9.40;99.90;;;;;;5083413;28;19920;-62
2023/02/03 12:43:21;;;;;;;;;;;9.40;99.90;;;;;;5083730;28;19925;-62
2023/02/03 12:45:52;;;;;;;;;;;9.40;99.90;;;;;;5079984;28;19920;-63
2023/02/03 12:48:21;;;;;;;;;;;9.40;99.90;;;;;;5085934;28;19985;-62
2023/02/03 12:50:50;;;;;;;;;;;9.40;99.90;;;;;;5080052;28;20568;-62
2023/02/03 12:53:18;;;;;;;;;;;9.40;99.90;;;;;;5083460;28;20375;-61
2023/02/03 12:55:49;;;;;;;;;;;9.40;99.90;;;;;;5082642;28;19920;-61
2023/02/03 12:58:19;;;;;;;;;;;9.40;99.90;;;;;;5081974;28;19920;-62
2023/02/03 13:00:49;;;;;;;;;;;9.40;99.90;;;;;;5078597;28;19927;-62
2023/02/03 13:03:19;;;;;;;;;;;9.40;99.90;;;;;;5079636;28;20383;-65
2023/02/03 13:05:49;;;;;;;;;;;9.50;99.90;;;;;;5084960;28;20053;-63
2023/02/03 13:08:20;;;;;;;;;;;9.60;99.90;;;;;;5085142;28;19919;-63
2023/02/03 13:10:48;;;;;;;;;;;9.60;99.90;;;;;;5080472;28;19924;-63
2023/02/03 13:13:17;;;;;;;;;;;9.70;99.90;;;;;;5083160;28;20007;-62
2023/02/03 13:15:46;;;;;;;;;;;9.70;99.90;;;;;;5079059;28;19974;-62
2023/02/03 13:18:18;;;;;;;;;;;9.60;99.90;;;;;;5083292;28;19920;-62
2023/02/03 13:20:45;;;;;;;;;;;9.70;99.90;;;;;;5076674;28;19920;-63
2023/02/03 13:23:13;;;;;;;;;;;9.70;99.90;;;;;;5083091;28;19959;-63
2023/02/03 13:25:45;;;;;;;;;;;9.80;99.90;;;;;;5082348;28;19981;-61
2023/02/03 13:28:18;;;;;;;;;;;9.70;99.90;;;;;;5077515;28;19924;-61
2023/02/03 13:31:01;;;;;;;;;;;9.80;99.90;;;;;;5072384;28;20007;-62
2023/02/03 13:33:48;;;;;;;;;;;9.80;99.90;;;;;;5081418;28;19966;-61
2023/02/03 13:36:24;;;;;;;;;;;9.80;99.90;;;;;;5071347;28;19957;-61
2023/02/03 13:39:03;;;;;;;;;;;9.80;99.90;;;;;;5079432;28;19974;-61
2023/02/03 13:41:34;;;;;;;;;;;9.90;99.90;;;;;;5082575;28;19974;-62
2023/02/03 13:44:02;;;;;;;;;;;9.80;99.90;;;;;;5082456;28;19921;-61
2023/02/03 13:46:31;;;;;;;;;;;9.80;99.90;;;;;;5085458;28;19927;-61
2023/02/03 13:48:59;;;;;;;;;;;9.80;99.90;;;;;;5080369;28;19989;-61
2023/02/03 13:51:32;;;;;;;;;;;9.80;99.90;;;;;;5085348;28;19965;-60
2023/02/03 13:54:01;;;;;;;;;;;9.80;99.90;;;;;;5083533;28;19965;-62
2023/02/03 13:56:28;;;;;;;;;;;9.80;99.90;;;;;;5078694;28;19920;-60
2023/02/03 13:58:59;;;;;;;;;;;9.80;99.90;;;;;;5085769;28;19931;-62
2023/02/03 14:01:35;;;;;;;;;;;9.80;99.90;;;;;;5082339;28;19920;-61
2023/02/03 14:04:03;;;;;;;;;;;9.70;99.90;;;;;;5083981;28;19938;-60
2023/02/03 14:06:53;;;;;;;;;;;9.60;99.90;;;;;;5082131;28;20416;-59
2023/02/03 14:09:20;;;;;;;;;;;9.60;99.90;;;;;;5081108;28;19924;-60
2023/02/03 14:11:49;;;;;;;;;;;9.50;99.90;;;;;;5081537;28;19920;-60
2023/02/03 14:14:34;;;;;;;;;;;9.40;99.90;;;;;;5082984;28;19961;-59
2023/02/03 14:17:02;;;;;;;;;;;9.40;99.90;;;;;;5080203;28;19973;-60
2023/02/03 14:19:53;;;;;;;;;;;9.30;99.90;;;;;;5082872;28;20330;-61
2023/02/03 14:22:19;;;;;;;;;;;9.10;99.90;;;;;;5070901;28;20344;-63
2023/02/03 14:24:47;;;;;;;;;;;8.70;99.90;;;;;;5082114;28;19920;-62
2023/02/03 14:27:17;;;;;;;;;;;8.50;99.90;;;;;;5079587;28;19920;-62
2023/02/03 14:29:43;;;;;;;;;;;8.40;99.90;;;;;;5081842;28;19931;-62
2023/02/03 14:32:12;;;;;;;;;;;8.30;99.90;;;;;;5080936;28;19927;-62
2023/02/03 14:34:40;;;;;;;;;;;8.20;99.90;;;;;;5083197;28;19929;-64
2023/02/03 14:37:21;;;;;;;;;;;8.10;99.90;;;;;;5080735;28;20310;-66
2023/02/03 14:40:09;;;;;;;;;;;8.10;99.90;;;;;;5084191;28;19927;-61
2023/02/03 14:42:44;;;;;;;;;;;8.00;99.90;;;;;;5079697;28;19993;-61